Terminal Aerodrome Forecast
Issued by NWS Billings, MT

Home | Current Version | Previous Version | Graphics & Text | Print | Product List | Glossary On
Versions: 1 2 3 4 5 6 7 8 9 10 11 12 13 14 15 16 17 18 19 20 21 22 23 24 25 26 27 28 29 30 31 32
000
FTUS45 KBYZ 200151 AAA
TAFMLS
TAF AMD
KMLS 200151Z 2002/2024 22011KT 6SM HZ FEW020 BKN250
     FM200300 31011KT 6SM HZ FEW020 SCT250
     FM201500 28011G19KT P6SM SCT250
     FM202300 26011KT P6SM SCT250=

USA.gov is the U.S. government's official web portal to all federal, state and local government web resources and services.